UAE529 VOHS-OMDB
Flight info
| Callsign | UAE529 |
|---|---|
| Flight time | N/A |
| Altitude | 36000 |
| Route | TAMIV7 GODEP W28 BBB N519 EXOLU/N0483F380 M638 KARKU L301 RAGMA N571 VUSET A454 PASOV B540 KUPMA/N0452F240 B540 MIVEK P574 IMPED |
| Aircraft | B77W/H-SDE1E2E3FGHIJ2J3J4J5M1RWXY/LB1D1 |
Departure
| Time | 2026-04-22 11:35 |
|---|---|
| Airport | Rajiv Gandhi International Airport (VOHS) |
Arrival
| Time | N/A |
|---|---|
| Airport | Dubai International Airport (OMDB) |
| Time | Latitude | Longitude | Altitude | Speed | Heading |
|---|---|---|---|---|---|
| 2026-04-22 11:17 | 17.23405 | 78.43124 | 2023 ft | 0 kts | 360° |
| 2026-04-22 11:26 | 17.23402 | 78.43124 | 2023 ft | 2 kts | 360° |
| 2026-04-22 11:26 | 17.23393 | 78.43124 | 2024 ft | 2 kts | 359° |
| 2026-04-22 11:26 | 17.23378 | 78.43125 | 2024 ft | 2 kts | 343° |
| 2026-04-22 11:27 | 17.23364 | 78.43131 | 2025 ft | 2 kts | 328° |
| 2026-04-22 11:27 | 17.23353 | 78.43140 | 2025 ft | 2 kts | 314° |
| 2026-04-22 11:27 | 17.23343 | 78.43153 | 2025 ft | 2 kts | 299° |
| 2026-04-22 11:27 | 17.23337 | 78.43167 | 2025 ft | 2 kts | 285° |
| 2026-04-22 11:28 | 17.23335 | 78.43182 | 2025 ft | 1 kts | 271° |
| 2026-04-22 11:28 | 17.23335 | 78.43187 | 2025 ft | 0 kts | 268° |
| 2026-04-22 11:30 | 17.23334 | 78.43182 | 2025 ft | 2 kts | 269° |
| 2026-04-22 11:30 | 17.23334 | 78.43133 | 2025 ft | 10 kts | 269° |
| 2026-04-22 11:31 | 17.23334 | 78.43030 | 2022 ft | 16 kts | 269° |
| 2026-04-22 11:31 | 17.23331 | 78.42889 | 2012 ft | 22 kts | 268° |
| 2026-04-22 11:31 | 17.23273 | 78.42737 | 2001 ft | 25 kts | 194° |
| 2026-04-22 11:31 | 17.23107 | 78.42701 | 1994 ft | 25 kts | 235° |
| 2026-04-22 11:32 | 17.23080 | 78.42522 | 1985 ft | 26 kts | 270° |
| 2026-04-22 11:32 | 17.23085 | 78.42323 | 1975 ft | 28 kts | 270° |
| 2026-04-22 11:32 | 17.23078 | 78.42114 | 1968 ft | 28 kts | 269° |
| 2026-04-22 11:32 | 17.23074 | 78.41906 | 1964 ft | 27 kts | 269° |
| 2026-04-22 11:33 | 17.23073 | 78.41715 | 1965 ft | 26 kts | 269° |
| 2026-04-22 11:33 | 17.23068 | 78.41513 | 1968 ft | 29 kts | 270° |
| 2026-04-22 11:33 | 17.23004 | 78.41337 | 1974 ft | 26 kts | 192° |
| 2026-04-22 11:33 | 17.22867 | 78.41393 | 1980 ft | 20 kts | 111° |
| 2026-04-22 11:34 | 17.22864 | 78.41563 | 1975 ft | 31 kts | 90° |
| 2026-04-22 11:34 | 17.22870 | 78.42055 | 1972 ft | 105 kts | 89° |
| 2026-04-22 11:34 | 17.22883 | 78.43051 | 2007 ft | 168 kts | 89° |
| 2026-04-22 11:34 | 17.22885 | 78.44420 | 2327 ft | 198 kts | 90° |
| 2026-04-22 11:35 | 17.22888 | 78.45859 | 3160 ft | 202 kts | 88° |
| 2026-04-22 11:35 | 17.22907 | 78.47269 | 4025 ft | 200 kts | 89° |
| 2026-04-22 11:35 | 17.22929 | 78.48793 | 4442 ft | 220 kts | 88° |
| 2026-04-22 11:35 | 17.23013 | 78.50456 | 4904 ft | 239 kts | 78° |
| 2026-04-22 11:36 | 17.23641 | 78.52134 | 5326 ft | 260 kts | 56° |
| 2026-04-22 11:36 | 17.24981 | 78.53479 | 5890 ft | 276 kts | 30° |
| 2026-04-22 11:36 | 17.26818 | 78.54059 | 6732 ft | 281 kts | 3° |
| 2026-04-22 11:36 | 17.28756 | 78.53991 | 7696 ft | 282 kts | 358° |
| 2026-04-22 11:37 | 17.30734 | 78.53871 | 8606 ft | 286 kts | 359° |
| 2026-04-22 11:37 | 17.32727 | 78.53754 | 9437 ft | 292 kts | 352° |
| 2026-04-22 11:37 | 17.34617 | 78.52993 | 10250 ft | 299 kts | 326° |
| 2026-04-22 11:37 | 17.36112 | 78.51377 | 10803 ft | 318 kts | 300° |
| 2026-04-22 11:38 | 17.36781 | 78.49109 | 11233 ft | 341 kts | 273° |
| 2026-04-22 11:38 | 17.36371 | 78.46621 | 11660 ft | 362 kts | 246° |
| 2026-04-22 11:38 | 17.33940 | 78.41743 | 12793 ft | 394 kts | 255° |
| 2026-04-22 11:39 | 17.33631 | 78.38902 | 13490 ft | 402 kts | 272° |
| 2026-04-22 11:39 | 17.33878 | 78.35983 | 14432 ft | 405 kts | 278° |
| 2026-04-22 11:39 | 17.34261 | 78.33071 | 15347 ft | 409 kts | 279° |
| 2026-04-22 11:39 | 17.34658 | 78.30102 | 15805 ft | 415 kts | 279° |
| 2026-04-22 11:40 | 17.35053 | 78.27135 | 15872 ft | 415 kts | 279° |
| 2026-04-22 11:40 | 17.35452 | 78.24132 | 15881 ft | 415 kts | 279° |
| 2026-04-22 11:40 | 17.35848 | 78.21138 | 15887 ft | 416 kts | 279° |
| 2026-04-22 11:40 | 17.36240 | 78.18165 | 15897 ft | 415 kts | 279° |
| 2026-04-22 11:41 | 17.36633 | 78.15173 | 15892 ft | 416 kts | 279° |
| 2026-04-22 11:41 | 17.37031 | 78.12147 | 15893 ft | 416 kts | 279° |
| 2026-04-22 11:41 | 17.37423 | 78.09165 | 15888 ft | 416 kts | 279° |
| 2026-04-22 11:41 | 17.37813 | 78.06187 | 15887 ft | 416 kts | 279° |
| 2026-04-22 11:42 | 17.38207 | 78.03172 | 15885 ft | 415 kts | 279° |
| 2026-04-22 11:42 | 17.38595 | 78.00211 | 15893 ft | 415 kts | 279° |
| 2026-04-22 11:42 | 17.38986 | 77.97210 | 15892 ft | 416 kts | 279° |
| 2026-04-22 11:42 | 17.39380 | 77.94192 | 15890 ft | 416 kts | 279° |
| 2026-04-22 11:43 | 17.39766 | 77.91227 | 15887 ft | 416 kts | 279° |
| 2026-04-22 11:43 | 17.40158 | 77.88220 | 15889 ft | 416 kts | 279° |
| 2026-04-22 11:43 | 17.40545 | 77.85243 | 15896 ft | 416 kts | 279° |
| 2026-04-22 11:43 | 17.40939 | 77.82209 | 15889 ft | 416 kts | 279° |
| 2026-04-22 11:44 | 17.41327 | 77.79216 | 15893 ft | 416 kts | 279° |
| 2026-04-22 11:44 | 17.41717 | 77.76207 | 15893 ft | 417 kts | 279° |
| 2026-04-22 11:44 | 17.42102 | 77.73229 | 15897 ft | 417 kts | 279° |
| 2026-04-22 11:44 | 17.42489 | 77.70229 | 15884 ft | 416 kts | 279° |
| 2026-04-22 11:45 | 17.42875 | 77.67235 | 15892 ft | 416 kts | 279° |
| 2026-04-22 11:45 | 17.43265 | 77.64211 | 15891 ft | 416 kts | 279° |
| 2026-04-22 11:45 | 17.43651 | 77.61207 | 15888 ft | 416 kts | 279° |
| 2026-04-22 11:45 | 17.44037 | 77.58202 | 15920 ft | 424 kts | 279° |
| 2026-04-22 11:46 | 17.44434 | 77.55113 | 16745 ft | 429 kts | 279° |
| 2026-04-22 11:46 | 17.44822 | 77.52085 | 17954 ft | 423 kts | 278° |
| 2026-04-22 11:46 | 17.45209 | 77.49063 | 18976 ft | 422 kts | 278° |
| 2026-04-22 11:46 | 17.45601 | 77.46009 | 19761 ft | 428 kts | 278° |
| 2026-04-22 11:47 | 17.45996 | 77.42913 | 20468 ft | 435 kts | 277° |
| 2026-04-22 11:47 | 17.46396 | 77.39776 | 21249 ft | 440 kts | 277° |
| 2026-04-22 11:47 | 17.46801 | 77.36599 | 22079 ft | 443 kts | 277° |
| 2026-04-22 11:47 | 17.47207 | 77.33405 | 22908 ft | 446 kts | 276° |
| 2026-04-22 11:48 | 17.47616 | 77.30188 | 23710 ft | 449 kts | 276° |
| 2026-04-22 11:48 | 17.48032 | 77.26907 | 24431 ft | 453 kts | 276° |
| 2026-04-22 11:48 | 17.48444 | 77.23654 | 25141 ft | 457 kts | 275° |
| 2026-04-22 11:48 | 17.48859 | 77.20376 | 25892 ft | 459 kts | 275° |
| 2026-04-22 11:49 | 17.49281 | 77.17045 | 26668 ft | 460 kts | 275° |
| 2026-04-22 11:49 | 17.49697 | 77.13747 | 27352 ft | 463 kts | 275° |
| 2026-04-22 11:49 | 17.50117 | 77.10414 | 27993 ft | 467 kts | 275° |
| 2026-04-22 11:49 | 17.50544 | 77.07023 | 28668 ft | 470 kts | 275° |
| 2026-04-22 11:50 | 17.50968 | 77.03651 | 29338 ft | 473 kts | 274° |
| 2026-04-22 11:50 | 17.51400 | 77.00217 | 30100 ft | 472 kts | 273° |
| 2026-04-22 11:50 | 17.51823 | 76.96849 | 31052 ft | 465 kts | 272° |
| 2026-04-22 11:50 | 17.52241 | 76.93530 | 32001 ft | 458 kts | 271° |
| 2026-04-22 11:51 | 17.52656 | 76.90221 | 32830 ft | 452 kts | 270° |
| 2026-04-22 11:51 | 17.53063 | 76.86968 | 33722 ft | 447 kts | 269° |
| 2026-04-22 11:51 | 17.53464 | 76.83735 | 34381 ft | 447 kts | 269° |
| 2026-04-22 11:51 | 17.53861 | 76.80533 | 34943 ft | 447 kts | 270° |
| 2026-04-22 11:52 | 17.54260 | 76.77318 | 35607 ft | 445 kts | 270° |
| 2026-04-22 11:52 | 17.54662 | 76.74070 | 35860 ft | 449 kts | 269° |
| 2026-04-22 11:52 | 17.55454 | 76.67687 | 35867 ft | 441 kts | 269° |
| 2026-04-22 11:53 | 17.56499 | 76.61320 | 35862 ft | 447 kts | 273° |
| 2026-04-22 11:53 | 17.57671 | 76.54936 | 35861 ft | 446 kts | 272° |
| 2026-04-22 11:54 | 17.58824 | 76.48568 | 35865 ft | 445 kts | 272° |
| 2026-04-22 11:54 | 17.59970 | 76.42176 | 35869 ft | 448 kts | 272° |
| 2026-04-22 11:55 | 17.61113 | 76.35768 | 35874 ft | 448 kts | 272° |
| 2026-04-22 11:55 | 17.62246 | 76.29391 | 35876 ft | 444 kts | 271° |
| 2026-04-22 11:56 | 17.63372 | 76.23027 | 35871 ft | 447 kts | 272° |
| 2026-04-22 11:56 | 17.64508 | 76.16599 | 35866 ft | 449 kts | 272° |
| 2026-04-22 11:57 | 17.65638 | 76.10197 | 35861 ft | 447 kts | 271° |
| 2026-04-22 11:57 | 17.66765 | 76.03796 | 35863 ft | 447 kts | 272° |
| 2026-04-22 11:58 | 17.68511 | 75.97491 | 35860 ft | 462 kts | 284° |
| 2026-04-22 11:58 | 17.71218 | 75.91316 | 35862 ft | 465 kts | 285° |
| 2026-04-22 11:59 | 17.73926 | 75.85195 | 35858 ft | 463 kts | 285° |
| 2026-04-22 11:59 | 17.76623 | 75.79079 | 35861 ft | 465 kts | 286° |
| 2026-04-22 12:00 | 17.79345 | 75.72898 | 35854 ft | 465 kts | 285° |
| 2026-04-22 12:00 | 17.82048 | 75.66751 | 35864 ft | 467 kts | 285° |
| 2026-04-22 12:01 | 17.84758 | 75.60581 | 35859 ft | 465 kts | 285° |
| 2026-04-22 12:01 | 17.87468 | 75.54401 | 35855 ft | 464 kts | 286° |
| 2026-04-22 12:02 | 17.90166 | 75.48247 | 35857 ft | 464 kts | 285° |
| 2026-04-22 12:02 | 17.92844 | 75.42125 | 35868 ft | 466 kts | 285° |
| 2026-04-22 12:03 | 17.95551 | 75.35938 | 35871 ft | 464 kts | 286° |
| 2026-04-22 12:03 | 17.98233 | 75.29798 | 35885 ft | 464 kts | 285° |
| 2026-04-22 12:04 | 18.00913 | 75.23659 | 35881 ft | 461 kts | 285° |
| 2026-04-22 12:04 | 18.03598 | 75.17497 | 35882 ft | 462 kts | 285° |
| 2026-04-22 12:05 | 18.06271 | 75.11360 | 35880 ft | 461 kts | 285° |
| 2026-04-22 12:05 | 18.08932 | 75.05243 | 35873 ft | 462 kts | 285° |
| 2026-04-22 12:06 | 18.11603 | 74.99094 | 35857 ft | 462 kts | 285° |
| 2026-04-22 12:06 | 18.14279 | 74.92928 | 35847 ft | 465 kts | 285° |
| 2026-04-22 12:07 | 18.16938 | 74.86802 | 35844 ft | 461 kts | 285° |
| 2026-04-22 12:07 | 18.19619 | 74.80608 | 35861 ft | 466 kts | 285° |
| 2026-04-22 12:08 | 18.22281 | 74.74468 | 35875 ft | 460 kts | 285° |
| 2026-04-22 12:08 | 18.24936 | 74.68329 | 35876 ft | 464 kts | 286° |
| 2026-04-22 12:09 | 18.27644 | 74.62141 | 35874 ft | 465 kts | 286° |
| 2026-04-22 12:09 | 18.30331 | 74.55999 | 35880 ft | 465 kts | 286° |
| 2026-04-22 12:10 | 18.33038 | 74.49799 | 35891 ft | 467 kts | 286° |
| 2026-04-22 12:10 | 18.35730 | 74.43632 | 35885 ft | 464 kts | 286° |
| 2026-04-22 12:11 | 18.38435 | 74.37420 | 35890 ft | 468 kts | 287° |
| 2026-04-22 12:11 | 18.41143 | 74.31203 | 35904 ft | 464 kts | 286° |
| 2026-04-22 12:12 | 18.43837 | 74.25003 | 35904 ft | 466 kts | 286° |
| 2026-04-22 12:12 | 18.46515 | 74.18835 | 35902 ft | 467 kts | 286° |
| 2026-04-22 12:13 | 18.49200 | 74.12652 | 35901 ft | 464 kts | 286° |
| 2026-04-22 12:13 | 18.51901 | 74.06413 | 35906 ft | 468 kts | 286° |
| 2026-04-22 12:14 | 18.54589 | 74.00206 | 35911 ft | 466 kts | 287° |
| 2026-04-22 12:14 | 18.57283 | 73.93973 | 35912 ft | 468 kts | 287° |
| 2026-04-22 12:15 | 18.60034 | 73.87726 | 35915 ft | 468 kts | 288° |
| 2026-04-22 12:15 | 18.62827 | 73.81610 | 35920 ft | 467 kts | 288° |
| 2026-04-22 12:16 | 18.65662 | 73.75380 | 35911 ft | 471 kts | 288° |
| 2026-04-22 12:16 | 18.68484 | 73.69170 | 35909 ft | 466 kts | 288° |
| 2026-04-22 12:17 | 18.71280 | 73.63000 | 35908 ft | 469 kts | 289° |
| 2026-04-22 12:17 | 18.74093 | 73.56787 | 35903 ft | 467 kts | 289° |
| 2026-04-22 12:18 | 18.76889 | 73.50600 | 35894 ft | 471 kts | 289° |
| 2026-04-22 12:18 | 18.79691 | 73.44398 | 35861 ft | 468 kts | 289° |
| 2026-04-22 12:19 | 18.82600 | 73.38231 | 35825 ft | 470 kts | 292° |
| 2026-04-22 12:19 | 18.85731 | 73.32198 | 35813 ft | 471 kts | 292° |
| 2026-04-22 12:20 | 18.88856 | 73.26148 | 35801 ft | 469 kts | 292° |
| 2026-04-22 12:20 | 18.91999 | 73.20030 | 35792 ft | 472 kts | 292° |
| 2026-04-22 12:21 | 18.95103 | 73.13977 | 35782 ft | 468 kts | 293° |
| 2026-04-22 12:21 | 18.98207 | 73.07904 | 35780 ft | 471 kts | 293° |
| 2026-04-22 12:22 | 19.01318 | 73.01813 | 35765 ft | 471 kts | 293° |
| 2026-04-22 12:22 | 19.04410 | 72.95750 | 35763 ft | 471 kts | 293° |
| 2026-04-22 12:23 | 19.07528 | 72.89641 | 35765 ft | 473 kts | 295° |
| 2026-04-22 12:23 | 19.11565 | 72.84071 | 35767 ft | 482 kts | 308° |
| 2026-04-22 12:24 | 19.16124 | 72.78849 | 35762 ft | 483 kts | 308° |
| 2026-04-22 12:24 | 19.20695 | 72.73614 | 35764 ft | 483 kts | 309° |
| 2026-04-22 12:25 | 19.25249 | 72.68392 | 35765 ft | 483 kts | 309° |
| 2026-04-22 12:25 | 19.29798 | 72.63169 | 35769 ft | 481 kts | 309° |
| 2026-04-22 12:26 | 19.34359 | 72.57925 | 35766 ft | 481 kts | 309° |
| 2026-04-22 12:26 | 19.38893 | 72.52710 | 35769 ft | 482 kts | 309° |
| 2026-04-22 12:27 | 19.43462 | 72.47447 | 35774 ft | 482 kts | 309° |
| 2026-04-22 12:27 | 19.47989 | 72.42229 | 35778 ft | 482 kts | 310° |
| 2026-04-22 12:28 | 19.52541 | 72.36977 | 35784 ft | 484 kts | 310° |
| 2026-04-22 12:28 | 19.57099 | 72.31712 | 35800 ft | 485 kts | 310° |
| 2026-04-22 12:29 | 19.61677 | 72.26421 | 35788 ft | 485 kts | 309° |
| 2026-04-22 12:29 | 19.66233 | 72.21149 | 35807 ft | 489 kts | 311° |
| 2026-04-22 12:30 | 19.73100 | 72.13197 | 35800 ft | 483 kts | 312° |
| 2026-04-22 12:31 | 19.77633 | 72.07941 | 35799 ft | 482 kts | 312° |
| 2026-04-22 12:31 | 19.82160 | 72.02685 | 35796 ft | 480 kts | 312° |
| 2026-04-22 12:32 | 19.86644 | 71.97478 | 35793 ft | 480 kts | 312° |
| 2026-04-22 12:32 | 19.93428 | 71.89588 | 35796 ft | 480 kts | 312° |
| 2026-04-22 12:33 | 19.97919 | 71.84359 | 35793 ft | 479 kts | 313° |
| 2026-04-22 12:33 | 20.02391 | 71.79147 | 35790 ft | 478 kts | 313° |
| 2026-04-22 12:34 | 20.06883 | 71.73909 | 35793 ft | 478 kts | 313° |